Time;durP1;ratioP1;P1;durP2;ratioP2;P2;SDS_P1;SDS_P2;PMS_P1;PMS_P2;Temp;Humidity;BMP_temperature;BMP_pressure;BME280_temperature;BME280_humidity;BME280_pressure;Samples;Min_cycle;Max_cycle;Signal;HPM_P1;HPM_P2
2023/06/14 00:00:56;;;;;;;1.80;1.70;;;24.90;51.40;;;;;;6338588;27;20031;-62
2023/06/14 00:03:58;;;;;;;1.73;1.63;;;24.50;51.20;;;;;;6338125;28;20036;-62
2023/06/14 00:07:00;;;;;;;2.35;2.15;;;24.90;51.40;;;;;;6343839;28;20150;-62
2023/06/14 00:10:03;;;;;;;1.92;1.80;;;24.50;51.30;;;;;;6324506;28;20095;-62
2023/06/14 00:13:04;;;;;;;1.90;1.70;;;24.90;51.60;;;;;;6325023;28;20108;-62
2023/06/14 00:16:07;;;;;;;2.28;2.08;;;24.70;51.40;;;;;;6332173;28;20682;-61
2023/06/14 00:19:10;;;;;;;2.47;2.22;;;24.40;51.40;;;;;;6334260;28;20039;-62
2023/06/14 00:22:12;;;;;;;2.38;2.17;;;25.00;52.40;;;;;;6339119;28;20315;-62
2023/06/14 00:25:14;;;;;;;1.95;1.75;;;24.90;51.80;;;;;;6349307;28;20044;-62
2023/06/14 00:35:48;;;;;;;2.00;1.70;;;24.60;51.50;;;;;;6640026;23;20032;-62
2023/06/14 00:38:49;;;;;;;1.98;1.88;;;24.80;52.00;;;;;;6179812;29;20039;-62
2023/06/14 00:41:51;;;;;;;2.60;2.30;;;24.90;52.20;;;;;;6181705;29;20034;-62
2023/06/14 00:44:52;;;;;;;2.05;1.90;;;24.80;52.20;;;;;;6181535;28;20030;-62
2023/06/14 00:58:45;;;;;;;2.28;2.08;;;24.60;52.00;;;;;;6125568;29;20064;-63
2023/06/14 01:01:48;;;;;;;1.73;1.45;;;24.90;52.70;;;;;;6151175;23;20505;-59
2023/06/14 01:04:52;;;;;;;2.03;1.90;;;24.90;52.30;;;;;;6166717;28;20066;-58
2023/06/14 01:08:11;;;;;;;2.10;1.90;;;24.70;52.50;;;;;;6166048;28;20043;-58
2023/06/14 01:11:21;;;;;;;2.03;1.83;;;24.60;52.50;;;;;;6170071;28;20039;-59
2023/06/14 01:14:26;;;;;;;2.13;1.88;;;24.80;52.70;;;;;;6173128;29;20035;-58
2023/06/14 01:17:31;;;;;;;1.90;1.80;;;24.40;52.60;;;;;;6175514;28;20051;-58
2023/06/14 01:20:36;;;;;;;2.10;1.90;;;24.70;52.80;;;;;;6175627;28;20040;-57
2023/06/14 01:23:39;;;;;;;2.20;2.00;;;24.70;52.80;;;;;;6175826;28;20047;-57
2023/06/14 01:26:45;;;;;;;1.75;1.55;;;24.70;53.00;;;;;;6175426;28;20103;-57
2023/06/14 01:29:47;;;;;;;1.63;1.52;;;24.80;53.00;;;;;;6175978;28;20047;-57
2023/06/14 01:32:50;;;;;;;1.63;1.50;;;24.80;53.10;;;;;;6176284;28;20039;-57
2023/06/14 01:35:53;;;;;;;1.50;1.40;;;24.60;53.00;;;;;;6175494;28;20039;-57
2023/06/14 01:38:56;;;;;;;1.63;1.52;;;24.70;53.00;;;;;;6158938;29;20043;-57
2023/06/14 01:41:58;;;;;;;1.63;1.52;;;24.70;53.10;;;;;;6175371;28;20047;-57
2023/06/14 01:45:03;;;;;;;1.50;1.30;;;24.70;53.10;;;;;;6175297;28;20069;-57
2023/06/14 01:48:05;;;;;;;1.95;1.58;;;24.70;53.10;;;;;;6174438;28;20050;-57
2023/06/14 01:51:07;;;;;;;1.40;1.30;;;24.70;53.10;;;;;;6175265;28;20039;-57
2023/06/14 01:54:09;;;;;;;1.50;1.40;;;24.80;53.20;;;;;;6175627;28;20466;-57
2023/06/14 01:57:13;;;;;;;1.50;1.33;;;24.60;53.20;;;;;;6175563;28;20042;-57
2023/06/14 02:00:16;;;;;;;1.50;1.40;;;24.70;53.30;;;;;;6174703;28;20047;-57
2023/06/14 02:03:19;;;;;;;2.03;1.60;;;24.80;53.30;;;;;;6175254;28;20071;-57
2023/06/14 02:06:20;;;;;;;1.55;1.45;;;24.70;53.30;;;;;;6175867;28;20047;-56
2023/06/14 02:09:23;;;;;;;1.60;1.50;;;24.70;53.40;;;;;;6175323;28;20049;-57
2023/06/14 02:12:25;;;;;;;1.20;1.10;;;24.80;53.40;;;;;;6175575;28;20074;-57
2023/06/14 02:15:27;;;;;;;1.70;1.55;;;24.70;53.30;;;;;;6175077;28;20079;-57
2023/06/14 02:18:33;;;;;;;1.58;1.42;;;24.70;53.40;;;;;;6175065;28;20043;-57
2023/06/14 02:21:34;;;;;;;1.50;1.40;;;24.50;53.30;;;;;;6174829;28;20070;-57
2023/06/14 02:24:36;;;;;;;1.50;1.40;;;24.70;53.50;;;;;;6175748;28;20066;-57
2023/06/14 02:27:42;;;;;;;1.50;1.40;;;24.80;53.60;;;;;;6174901;28;20039;-57
2023/06/14 02:30:45;;;;;;;1.40;1.30;;;24.60;53.50;;;;;;6174977;28;20035;-57
2023/06/14 02:33:47;;;;;;;1.52;1.40;;;24.60;53.60;;;;;;6174631;28;20050;-58
2023/06/14 02:36:49;;;;;;;1.60;1.50;;;24.80;53.70;;;;;;6157500;29;20047;-57
2023/06/14 02:39:51;;;;;;;1.48;1.38;;;24.70;53.60;;;;;;6174022;28;20040;-57
2023/06/14 02:42:53;;;;;;;1.60;1.50;;;24.90;53.70;;;;;;6174381;28;20039;-57
2023/06/14 02:45:54;;;;;;;1.42;1.33;;;24.70;53.70;;;;;;6174292;28;20047;-57
2023/06/14 02:48:56;;;;;;;1.70;1.60;;;24.70;53.70;;;;;;6175175;28;20046;-57
2023/06/14 02:51:58;;;;;;;1.67;1.58;;;24.70;53.80;;;;;;6175033;28;20047;-57
2023/06/14 02:55:00;;;;;;;1.67;1.48;;;24.80;53.80;;;;;;6174386;29;20062;-57
2023/06/14 02:58:01;;;;;;;1.60;1.50;;;24.40;53.70;;;;;;6174327;28;20067;-58
2023/06/14 03:01:05;;;;;;;1.77;1.42;;;24.80;53.90;;;;;;6174997;28;20067;-57
2023/06/14 03:04:10;;;;;;;1.67;1.58;;;24.60;53.80;;;;;;6174983;28;20043;-57
2023/06/14 03:07:19;;;;;;;1.65;1.55;;;24.70;53.90;;;;;;6174917;28;20015;-57
2023/06/14 03:10:23;;;;;;;1.77;1.55;;;24.60;54.00;;;;;;6174322;28;20062;-58
2023/06/14 03:13:27;;;;;;;1.50;1.40;;;24.80;54.00;;;;;;6175024;28;20035;-57
2023/06/14 03:16:29;;;;;;;1.77;1.58;;;24.80;54.20;;;;;;6174671;28;20043;-57
2023/06/14 03:19:32;;;;;;;1.77;1.67;;;24.70;54.00;;;;;;6174744;28;20489;-57
2023/06/14 03:22:37;;;;;;;1.65;1.55;;;24.60;54.20;;;;;;6172642;28;20043;-53
2023/06/14 03:25:42;;;;;;;1.90;1.80;;;24.70;53.90;;;;;;6143138;28;20035;-47
2023/06/14 03:28:46;;;;;;;1.80;1.58;;;24.70;54.30;;;;;;6140489;28;20054;-51
2023/06/14 03:32:01;;;;;;;2.10;1.90;;;24.20;54.00;;;;;;6139632;29;20040;-52
2023/06/14 03:35:18;;;;;;;1.50;1.30;;;24.60;54.40;;;;;;6141496;29;20039;-48
2023/06/14 03:38:21;;;;;;;1.77;1.67;;;24.60;53.80;;;;;;6143313;28;20124;-52
2023/06/14 03:41:27;;;;;;;1.60;1.50;;;24.60;54.40;;;;;;6142839;28;20093;-52
2023/06/14 03:44:30;;;;;;;1.60;1.50;;;24.40;54.20;;;;;;6141857;28;20214;-49
2023/06/14 03:47:31;;;;;;;2.05;1.70;;;24.70;54.30;;;;;;6141103;28;20039;-52
2023/06/14 03:50:33;;;;;;;1.55;1.45;;;24.70;54.60;;;;;;6140459;28;20042;-50
2023/06/14 03:53:35;;;;;;;1.52;1.30;;;24.70;54.50;;;;;;6142286;28;20533;-46
2023/06/14 03:56:40;;;;;;;1.70;1.60;;;24.70;54.60;;;;;;6141960;28;20040;-50
2023/06/14 03:59:46;;;;;;;1.65;1.40;;;24.30;54.40;;;;;;6146144;28;20028;-53
2023/06/14 04:02:49;;;;;;;2.28;1.67;;;24.60;54.50;;;;;;6146023;28;20047;-49
2023/06/14 04:05:52;;;;;;;1.70;1.58;;;24.60;54.60;;;;;;6143289;28;20043;-49
2023/06/14 04:08:55;;;;;;;1.85;1.45;;;24.50;54.60;;;;;;6144705;28;20050;-50
2023/06/14 04:11:57;;;;;;;1.60;1.50;;;24.60;54.60;;;;;;6145520;28;20039;-48
2023/06/14 04:15:00;;;;;;;1.70;1.60;;;24.00;54.40;;;;;;6146784;28;20040;-49
2023/06/14 04:18:23;;;;;;;2.25;1.77;;;24.40;54.60;;;;;;6146261;28;20044;-52
2023/06/14 04:21:27;;;;;;;1.50;1.40;;;24.20;54.60;;;;;;6144616;28;20097;-51
2023/06/14 04:24:32;;;;;;;1.70;1.60;;;24.40;54.70;;;;;;6145424;28;20035;-50
2023/06/14 04:27:36;;;;;;;1.35;1.25;;;24.40;54.70;;;;;;6146718;28;20461;-49
2023/06/14 04:30:47;;;;;;;1.63;1.40;;;24.20;54.60;;;;;;6145416;28;20094;-48
2023/06/14 04:33:53;;;;;;;1.58;1.48;;;24.20;54.20;;;;;;6145851;28;20043;-52
2023/06/14 04:36:57;;;;;;;1.63;1.50;;;24.60;54.90;;;;;;6146017;28;20047;-50
2023/06/14 04:40:06;;;;;;;1.55;1.45;;;24.40;54.90;;;;;;6143491;28;20040;-52
2023/06/14 04:43:17;;;;;;;1.50;1.40;;;24.50;54.90;;;;;;6142213;28;20050;-48
2023/06/14 04:46:20;;;;;;;1.92;1.73;;;24.60;55.00;;;;;;6144950;28;20576;-48
2023/06/14 04:49:24;;;;;;;1.60;1.40;;;24.20;54.80;;;;;;6145112;28;20039;-51
2023/06/14 04:52:29;;;;;;;1.40;1.30;;;24.40;55.00;;;;;;6144132;28;20126;-51
2023/06/14 04:55:33;;;;;;;1.40;1.30;;;24.50;55.10;;;;;;6144993;28;20035;-49
2023/06/14 04:58:38;;;;;;;1.50;1.40;;;24.20;54.60;;;;;;6143608;28;20082;-53
2023/06/14 05:01:40;;;;;;;1.42;1.33;;;24.40;55.00;;;;;;6142096;28;20119;-51
2023/06/14 05:04:42;;;;;;;1.48;1.38;;;24.40;55.00;;;;;;6142374;28;20482;-51
2023/06/14 05:07:43;;;;;;;1.48;1.38;;;24.50;55.30;;;;;;6142155;28;20410;-50
2023/06/14 05:10:49;;;;;;;1.65;1.50;;;24.40;55.20;;;;;;6143940;28;20477;-52
2023/06/14 05:13:58;;;;;;;1.73;1.38;;;24.50;55.30;;;;;;6143266;28;20031;-50
2023/06/14 05:17:02;;;;;;;1.38;1.27;;;24.50;55.20;;;;;;6144915;28;20039;-50
2023/06/14 05:20:10;;;;;;;1.55;1.42;;;24.50;55.30;;;;;;6143036;28;20066;-48
2023/06/14 05:23:15;;;;;;;1.52;1.42;;;24.20;55.00;;;;;;6142798;29;20047;-48
2023/06/14 05:26:17;;;;;;;1.40;1.30;;;24.40;55.30;;;;;;6143190;28;20082;-50
2023/06/14 05:29:19;;;;;;;2.03;1.83;;;24.50;55.30;;;;;;6161623;28;20050;-48
2023/06/14 05:32:20;;;;;;;1.40;1.25;;;24.50;55.40;;;;;;6173047;28;20047;-47
2023/06/14 05:35:23;;;;;;;1.30;1.20;;;24.40;55.40;;;;;;6174403;28;20047;-48
2023/06/14 05:38:25;;;;;;;1.55;1.45;;;24.20;55.30;;;;;;6173582;28;20047;-44
2023/06/14 05:41:27;;;;;;;1.50;1.27;;;24.40;55.40;;;;;;6172677;28;20138;-45
2023/06/14 05:44:29;;;;;;;1.70;1.50;;;24.10;55.30;;;;;;6171815;29;20094;-46
2023/06/14 05:47:31;;;;;;;1.70;1.58;;;24.50;55.50;;;;;;6170679;28;20039;-48
2023/06/14 05:50:33;;;;;;;1.70;1.50;;;24.50;55.70;;;;;;6169950;28;20542;-49
2023/06/14 05:53:35;;;;;;;1.50;1.25;;;24.40;55.50;;;;;;6171027;28;20040;-47
2023/06/14 05:56:36;;;;;;;1.58;1.48;;;24.00;55.40;;;;;;6176367;28;20040;-45
2023/06/14 05:59:40;;;;;;;1.40;1.20;;;24.50;56.30;;;;;;6176507;28;20297;-47
2023/06/14 06:02:43;;;;;;;1.40;1.30;;;24.00;55.60;;;;;;6177407;28;20035;-49
2023/06/14 06:05:44;;;;;;;1.50;1.40;;;24.30;55.50;;;;;;6172342;29;20039;-43
2023/06/14 06:08:48;;;;;;;1.50;1.40;;;24.50;55.80;;;;;;6176180;28;20099;-44
2023/06/14 06:11:49;;;;;;;1.33;1.23;;;24.30;55.70;;;;;;6168267;28;20049;-46
2023/06/14 06:14:56;;;;;;;1.30;1.13;;;24.10;55.70;;;;;;6164630;28;20038;-46
2023/06/14 06:17:57;;;;;;;1.40;1.30;;;24.40;55.90;;;;;;6159602;28;20036;-46
2023/06/14 06:20:59;;;;;;;1.33;1.20;;;24.40;55.90;;;;;;6165178;28;20059;-44
2023/06/14 06:24:03;;;;;;;1.30;1.20;;;24.10;55.80;;;;;;6170225;28;20058;-48
2023/06/14 06:27:07;;;;;;;1.65;1.27;;;24.30;55.80;;;;;;6169006;28;20054;-47
2023/06/14 06:30:11;;;;;;;4.88;4.10;;;24.50;56.00;;;;;;6159881;28;20043;-51
2023/06/14 06:33:14;;;;;;;7.38;6.32;;;24.30;55.90;;;;;;6163145;28;20043;-48
2023/06/14 06:36:15;;;;;;;11.68;8.02;;;24.40;56.10;;;;;;6165358;28;20031;-49
2023/06/14 06:39:17;;;;;;;11.23;8.60;;;24.50;56.30;;;;;;6153368;28;20062;-47
2023/06/14 06:42:18;;;;;;;10.00;7.25;;;24.00;56.00;;;;;;6147456;28;20042;-49
2023/06/14 06:45:26;;;;;;;9.70;7.50;;;24.20;56.20;;;;;;6136877;28;20046;-44
2023/06/14 06:48:30;;;;;;;10.75;9.13;;;24.30;56.40;;;;;;6139793;28;20193;-47
2023/06/14 06:51:36;;;;;;;12.07;9.30;;;24.30;56.50;;;;;;6144751;28;20800;-50
2023/06/14 06:54:37;;;;;;;13.88;8.85;;;24.50;56.80;;;;;;6139280;28;20055;-47
2023/06/14 06:57:39;;;;;;;9.77;7.28;;;24.30;57.00;;;;;;6138763;28;20044;-44
2023/06/14 07:00:41;;;;;;;13.80;9.52;;;24.40;57.10;;;;;;6143620;28;20119;-55
2023/06/14 07:03:43;;;;;;;14.38;9.82;;;24.30;57.30;;;;;;6160302;28;20047;-51
2023/06/14 07:06:46;;;;;;;11.52;7.53;;;24.20;57.30;;;;;;6151369;28;20047;-53
2023/06/14 07:09:50;;;;;;;10.13;7.75;;;24.20;57.40;;;;;;6145265;28;20777;-54
2023/06/14 07:12:52;;;;;;;12.85;9.00;;;24.20;57.30;;;;;;6138479;28;20051;-54
2023/06/14 07:15:58;;;;;;;13.77;10.93;;;24.30;57.60;;;;;;6158108;28;20051;-51
2023/06/14 07:19:00;;;;;;;13.73;9.75;;;24.40;57.70;;;;;;6224462;23;20089;-44
2023/06/14 07:22:02;;;;;;;11.85;8.95;;;24.30;58.50;;;;;;6179757;28;20042;-46
2023/06/14 07:25:03;;;;;;;13.60;9.82;;;24.30;58.50;;;;;;6177172;28;20039;-47
2023/06/14 07:28:05;;;;;;;15.52;9.77;;;24.40;58.60;;;;;;6175760;28;20035;-45
2023/06/14 07:31:07;;;;;;;13.40;8.88;;;24.30;58.50;;;;;;6159870;28;20274;-51
2023/06/14 07:34:08;;;;;;;12.13;7.68;;;24.30;59.40;;;;;;6161643;28;20078;-52
2023/06/14 07:37:10;;;;;;;14.00;7.93;;;24.30;59.40;;;;;;6156709;28;20095;-46
2023/06/14 07:40:12;;;;;;;11.07;7.90;;;24.20;59.50;;;;;;6158205;28;20035;-50
2023/06/14 07:43:15;;;;;;;13.75;7.75;;;24.40;59.30;;;;;;6167504;28;20199;-50
2023/06/14 07:46:17;;;;;;;12.32;9.02;;;24.30;59.30;;;;;;6168228;28;20091;-49
2023/06/14 07:49:18;;;;;;;10.73;7.78;;;24.40;59.50;;;;;;6165191;28;20031;-49
2023/06/14 07:52:20;;;;;;;10.13;7.60;;;24.40;59.60;;;;;;6166825;28;20027;-47
2023/06/14 07:55:22;;;;;;;14.30;8.88;;;24.50;59.80;;;;;;6169806;28;20027;-47
2023/06/14 07:58:24;;;;;;;10.20;7.53;;;24.20;59.70;;;;;;6175595;28;20201;-48
2023/06/14 08:01:27;;;;;;;11.65;7.70;;;24.30;59.80;;;;;;6172863;28;20050;-50
2023/06/14 08:04:29;;;;;;;11.70;7.13;;;24.30;59.70;;;;;;6172693;28;20058;-50
2023/06/14 08:07:34;;;;;;;9.40;6.20;;;24.30;59.80;;;;;;6168853;28;20027;-47
2023/06/14 08:10:35;;;;;;;7.68;6.35;;;24.40;58.10;;;;;;6171955;28;20091;-46
2023/06/14 08:13:37;;;;;;;12.07;6.68;;;24.20;59.60;;;;;;6176065;28;20033;-50
2023/06/14 08:16:39;;;;;;;11.65;7.13;;;24.50;59.80;;;;;;6174194;28;20039;-46
2023/06/14 08:19:41;;;;;;;10.85;7.00;;;24.50;59.70;;;;;;6175601;28;20031;-45
2023/06/14 08:22:42;;;;;;;10.38;6.35;;;24.40;59.60;;;;;;6177261;28;20027;-47
2023/06/14 08:25:46;;;;;;;8.48;5.85;;;24.40;59.60;;;;;;6174417;28;20035;-48
2023/06/14 08:28:50;;;;;;;7.70;5.88;;;24.50;59.70;;;;;;6173188;28;20066;-47
2023/06/14 08:31:52;;;;;;;10.95;6.47;;;24.30;59.60;;;;;;6169622;28;20039;-47
2023/06/14 08:34:53;;;;;;;7.75;6.00;;;24.40;59.60;;;;;;6169747;28;20031;-48
2023/06/14 08:38:07;;;;;;;6.13;4.32;;;24.70;59.80;;;;;;6161558;28;20036;-50
2023/06/14 08:41:13;;;;;;;9.90;6.57;;;24.40;59.50;;;;;;6170210;28;20209;-48
2023/06/14 08:44:15;;;;;;;7.18;6.13;;;24.60;59.60;;;;;;6166452;28;20049;-51
2023/06/14 08:47:18;;;;;;;11.73;6.95;;;24.50;60.00;;;;;;6145314;28;20308;-49
2023/06/14 08:50:26;;;;;;;11.65;6.63;;;24.60;60.00;;;;;;6133470;28;20118;-50
2023/06/14 08:53:33;;;;;;;12.45;6.65;;;24.70;59.90;;;;;;6127345;28;20579;-51
2023/06/14 08:56:41;;;;;;;12.25;6.88;;;24.70;59.90;;;;;;6127796;28;20031;-47
2023/06/14 08:59:49;;;;;;;10.98;7.00;;;24.60;59.70;;;;;;6135305;28;20039;-48
2023/06/14 09:02:57;;;;;;;20.55;7.07;;;24.70;59.80;;;;;;6133208;29;20205;-45
2023/06/14 09:05:59;;;;;;;9.25;6.38;;;24.80;59.70;;;;;;6132109;29;20043;-49
2023/06/14 09:09:01;;;;;;;9.45;6.32;;;24.90;60.00;;;;;;6135469;28;20047;-49
2023/06/14 09:12:03;;;;;;;10.88;7.03;;;24.90;59.90;;;;;;6135415;28;20046;-51
2023/06/14 09:15:06;;;;;;;10.13;5.80;;;24.90;60.00;;;;;;6131695;28;20055;-52
2023/06/14 09:18:08;;;;;;;9.60;5.15;;;24.60;59.60;;;;;;6129705;28;20046;-52
2023/06/14 09:21:12;;;;;;;8.68;5.45;;;24.70;59.80;;;;;;6109620;28;20051;-51
2023/06/14 09:24:17;;;;;;;9.07;5.75;;;25.00;59.70;;;;;;6125987;28;20039;-52
2023/06/14 09:27:18;;;;;;;11.70;6.18;;;25.10;59.60;;;;;;6109450;29;20047;-50
2023/06/14 09:30:20;;;;;;;4.55;3.85;;;25.00;59.50;;;;;;6138056;28;20035;-49
2023/06/14 09:33:23;;;;;;;5.28;4.10;;;25.00;59.50;;;;;;6132343;28;20101;-48
2023/06/14 09:36:26;;;;;;;7.00;4.53;;;25.10;59.50;;;;;;6132025;28;20047;-49
2023/06/14 09:39:27;;;;;;;7.15;5.63;;;25.20;59.60;;;;;;6152269;28;20039;-45
2023/06/14 09:42:29;;;;;;;9.93;5.80;;;25.20;59.50;;;;;;6114122;28;20116;-47
2023/06/14 09:45:33;;;;;;;10.68;7.18;;;25.00;59.50;;;;;;6095051;28;20793;-45
2023/06/14 09:48:36;;;;;;;10.30;5.80;;;25.10;59.50;;;;;;6094809;28;20287;-44
2023/06/14 09:51:43;;;;;;;7.30;5.65;;;25.30;59.40;;;;;;6087223;28;20731;-42
2023/06/14 09:54:47;;;;;;;8.50;5.32;;;25.20;59.30;;;;;;6109392;28;20066;-44
2023/06/14 09:57:50;;;;;;;6.05;4.50;;;25.30;59.50;;;;;;6115819;29;20043;-44
2023/06/14 10:00:52;;;;;;;5.38;4.20;;;25.20;58.60;;;;;;6106527;28;20042;-47
2023/06/14 10:04:01;;;;;;;7.85;4.65;;;24.90;58.60;;;;;;6097660;28;20050;-50
2023/06/14 10:07:11;;;;;;;7.63;4.40;;;25.30;58.90;;;;;;6119032;29;20036;-47
2023/06/14 10:10:13;;;;;;;5.00;3.78;;;25.50;59.80;;;;;;6121461;28;20032;-47
2023/06/14 10:13:16;;;;;;;4.63;3.63;;;25.40;58.70;;;;;;6109144;28;20035;-46
2023/06/14 10:16:23;;;;;;;5.93;3.05;;;25.50;58.60;;;;;;6124694;28;20043;-46
2023/06/14 10:19:34;;;;;;;3.65;2.90;;;25.20;58.50;;;;;;6120089;28;20035;-45
2023/06/14 10:22:44;;;;;;;3.67;2.83;;;25.20;58.40;;;;;;6111221;28;20032;-44
2023/06/14 10:25:49;;;;;;;2.88;2.58;;;25.00;58.30;;;;;;6121191;28;20694;-43
2023/06/14 10:29:01;;;;;;;3.22;2.38;;;25.30;58.40;;;;;;6124802;28;20103;-49
2023/06/14 10:32:03;;;;;;;2.50;2.30;;;25.10;58.30;;;;;;6121757;28;20028;-46
2023/06/14 10:35:08;;;;;;;2.72;2.42;;;24.80;58.10;;;;;;6122583;28;20745;-46
2023/06/14 10:38:12;;;;;;;2.50;2.30;;;25.50;58.60;;;;;;6120779;28;20032;-44
2023/06/14 10:41:17;;;;;;;3.35;2.50;;;25.20;58.40;;;;;;6125801;29;20046;-49
2023/06/14 10:44:33;;;;;;;2.65;2.38;;;25.20;58.40;;;;;;6127045;28;20050;-48
2023/06/14 10:47:35;;;;;;;2.53;2.17;;;25.40;58.50;;;;;;6124688;28;20035;-43
2023/06/14 10:50:44;;;;;;;2.45;2.25;;;25.30;58.40;;;;;;6132633;29;20047;-44
2023/06/14 10:53:47;;;;;;;2.55;2.35;;;25.30;58.40;;;;;;6139249;28;20043;-43
2023/06/14 10:56:50;;;;;;;1.77;1.67;;;25.50;58.50;;;;;;6134606;28;20114;-47
2023/06/14 10:59:52;;;;;;;2.30;2.10;;;25.20;58.30;;;;;;6134183;28;20047;-43
2023/06/14 11:03:21;;;;;;;2.90;1.90;;;25.40;58.40;;;;;;6137476;28;20695;-45
2023/06/14 11:06:28;;;;;;;2.17;1.90;;;25.20;58.20;;;;;;6132320;28;20043;-43
2023/06/14 11:09:53;;;;;;;2.38;2.10;;;25.40;58.30;;;;;;6135761;28;20043;-45
2023/06/14 11:12:55;;;;;;;2.28;1.77;;;25.30;58.20;;;;;;6133918;28;20047;-48
2023/06/14 11:15:58;;;;;;;1.77;1.67;;;25.50;58.40;;;;;;6120736;28;20076;-44
2023/06/14 11:19:01;;;;;;;2.10;1.90;;;25.30;58.30;;;;;;6134155;28;20078;-44
2023/06/14 11:22:05;;;;;;;1.80;1.70;;;25.40;58.10;;;;;;6128198;29;20039;-44
2023/06/14 11:25:10;;;;;;;2.00;1.80;;;25.00;58.00;;;;;;6137172;28;20047;-42
2023/06/14 11:28:11;;;;;;;1.98;1.70;;;25.40;58.00;;;;;;6131131;28;20126;-43
2023/06/14 11:31:16;;;;;;;2.17;1.98;;;25.30;57.90;;;;;;6138655;28;20048;-46
2023/06/14 11:34:18;;;;;;;1.95;1.67;;;25.40;57.80;;;;;;6140599;28;20035;-47
2023/06/14 11:37:21;;;;;;;1.60;1.50;;;25.10;57.60;;;;;;6138604;29;20035;-44
2023/06/14 11:40:27;;;;;;;2.10;1.90;;;25.50;57.80;;;;;;6134447;28;20043;-44
2023/06/14 11:43:31;;;;;;;1.83;1.73;;;25.50;57.90;;;;;;6128275;28;20133;-43
2023/06/14 11:46:33;;;;;;;2.45;1.80;;;25.50;57.90;;;;;;6129320;28;20062;-47
2023/06/14 11:49:36;;;;;;;2.05;1.85;;;25.30;57.70;;;;;;6125151;28;20035;-47
2023/06/14 11:52:38;;;;;;;2.05;1.85;;;25.50;57.70;;;;;;6132403;28;20047;-49
2023/06/14 11:55:41;;;;;;;2.47;1.70;;;25.60;57.90;;;;;;6122150;28;20755;-45
2023/06/14 11:58:43;;;;;;;2.00;1.75;;;25.50;57.70;;;;;;6120839;28;20035;-45
2023/06/14 12:01:45;;;;;;;2.05;1.77;;;25.70;58.10;;;;;;6110113;28;20035;-44
2023/06/14 12:04:48;;;;;;;3.40;1.90;;;25.40;57.70;;;;;;6121847;28;20130;-45
2023/06/14 12:07:53;;;;;;;2.22;1.85;;;25.60;57.80;;;;;;6121259;29;20279;-47
2023/06/14 12:10:56;;;;;;;2.65;2.40;;;25.50;57.60;;;;;;6092502;29;20110;-45
2023/06/14 12:13:58;;;;;;;2.25;2.05;;;25.70;58.10;;;;;;6096808;28;20047;-47
2023/06/14 12:17:06;;;;;;;3.33;1.80;;;25.80;57.80;;;;;;6122003;28;20050;-43
2023/06/14 12:20:11;;;;;;;2.20;1.98;;;25.70;57.40;;;;;;6117239;28;20047;-43
2023/06/14 12:23:13;;;;;;;1.95;1.80;;;25.70;57.20;;;;;;6117537;29;20039;-44
2023/06/14 12:26:16;;;;;;;1.90;1.80;;;25.70;57.20;;;;;;6116464;28;20121;-45
2023/06/14 12:29:19;;;;;;;2.03;1.88;;;25.50;57.10;;;;;;6095473;29;20039;-44
2023/06/14 12:32:21;;;;;;;2.33;2.13;;;25.40;56.80;;;;;;6095890;28;20038;-47
2023/06/14 12:35:30;;;;;;;2.10;1.90;;;25.80;57.20;;;;;;6097657;28;20063;-46
2023/06/14 12:38:34;;;;;;;1.83;1.73;;;25.80;56.60;;;;;;6124784;28;20742;-45
2023/06/14 12:41:37;;;;;;;2.20;2.00;;;25.70;56.10;;;;;;6131959;28;20035;-45
2023/06/14 12:44:40;;;;;;;2.25;1.80;;;25.70;56.10;;;;;;6129086;28;20737;-46
2023/06/14 12:47:43;;;;;;;3.50;1.70;;;25.50;55.70;;;;;;6128929;28;20122;-47
2023/06/14 12:50:45;;;;;;;2.47;1.80;;;25.50;55.70;;;;;;6119993;28;20195;-51
2023/06/14 12:53:48;;;;;;;2.05;1.70;;;25.70;56.10;;;;;;6100974;29;20051;-46
2023/06/14 12:56:51;;;;;;;2.13;1.77;;;25.80;55.40;;;;;;6120418;28;20089;-49
2023/06/14 12:59:55;;;;;;;3.38;2.00;;;25.70;55.20;;;;;;6116132;28;20327;-48
2023/06/14 13:02:57;;;;;;;3.08;2.00;;;25.50;54.50;;;;;;6123666;28;20032;-51
2023/06/14 13:05:59;;;;;;;2.83;2.00;;;25.60;54.80;;;;;;6123759;29;20126;-48
2023/06/14 13:09:03;;;;;;;1.70;1.60;;;25.70;54.70;;;;;;6129142;28;20050;-46
2023/06/14 13:12:06;;;;;;;1.80;1.70;;;25.80;54.40;;;;;;6129269;28;20047;-48
2023/06/14 13:15:08;;;;;;;1.92;1.83;;;25.50;54.10;;;;;;6132338;28;20043;-45
2023/06/14 13:18:11;;;;;;;1.77;1.63;;;25.90;54.10;;;;;;6129541;28;20050;-44
2023/06/14 13:21:14;;;;;;;2.20;1.80;;;25.70;54.10;;;;;;6126411;28;20036;-53
2023/06/14 13:24:17;;;;;;;1.70;1.60;;;25.50;53.80;;;;;;6130482;28;20133;-50
2023/06/14 13:27:18;;;;;;;1.70;1.60;;;25.90;53.80;;;;;;6128955;28;20051;-47
2023/06/14 13:30:20;;;;;;;1.70;1.60;;;25.80;53.50;;;;;;6126564;28;20031;-50
2023/06/14 13:33:24;;;;;;;1.73;1.63;;;25.80;53.40;;;;;;6127701;28;20035;-46
2023/06/14 13:36:25;;;;;;;2.28;2.08;;;25.70;53.00;;;;;;6121727;28;20729;-48
2023/06/14 13:39:27;;;;;;;1.52;1.42;;;25.70;53.00;;;;;;6126200;28;20040;-48
2023/06/14 13:42:31;;;;;;;4.63;1.92;;;25.80;52.60;;;;;;6124676;28;20043;-49
2023/06/14 13:45:33;;;;;;;1.60;1.50;;;25.80;52.60;;;;;;6126418;28;20049;-48
2023/06/14 13:48:36;;;;;;;5.68;1.65;;;25.80;52.40;;;;;;6109591;28;20305;-47
2023/06/14 13:51:38;;;;;;;3.05;2.00;;;25.80;52.10;;;;;;6165123;28;20043;-50
2023/06/14 13:54:41;;;;;;;1.73;1.63;;;25.80;52.00;;;;;;6154036;29;20106;-50
2023/06/14 13:57:43;;;;;;;4.03;1.70;;;25.50;51.70;;;;;;6177167;28;20042;-49
2023/06/14 14:00:47;;;;;;;1.70;1.60;;;25.50;51.60;;;;;;6170137;28;20054;-49
2023/06/14 14:03:49;;;;;;;2.75;1.88;;;25.80;51.90;;;;;;6171016;28;20043;-49
2023/06/14 14:06:51;;;;;;;2.85;1.80;;;25.90;51.50;;;;;;6166201;28;20086;-46
2023/06/14 14:09:53;;;;;;;1.60;1.50;;;25.60;51.50;;;;;;6165703;28;20043;-46
2023/06/14 14:12:54;;;;;;;2.45;1.67;;;25.80;51.40;;;;;;6175382;28;20032;-46
2023/06/14 14:15:56;;;;;;;1.77;1.67;;;25.80;51.30;;;;;;6171724;28;20162;-56
2023/06/14 14:18:58;;;;;;;2.22;2.03;;;26.20;51.50;;;;;;6109784;28;20142;-60
2023/06/14 14:22:01;;;;;;;2.53;2.33;;;25.90;51.20;;;;;;6155845;28;20043;-54
2023/06/14 14:32:20;;;;;;;2.63;1.70;;;25.80;49.70;;;;;;6837903;23;20051;-50
2023/06/14 14:35:23;;;;;;;2.05;1.70;;;26.00;50.40;;;;;;6153022;28;20046;-52
2023/06/14 14:38:40;;;;;;;2.38;1.83;;;25.60;49.90;;;;;;6550209;23;20048;-49
2023/06/14 14:41:41;;;;;;;1.60;1.50;;;25.90;50.00;;;;;;6155297;28;20087;-51
2023/06/14 14:59:15;;;;;;;2.28;2.08;;;25.90;49.00;;;;;;6238722;23;20357;-50
2023/06/14 15:02:17;;;;;;;1.92;1.80;;;25.90;49.60;;;;;;6172211;28;20024;-44
2023/06/14 15:05:19;;;;;;;1.88;1.73;;;25.90;49.40;;;;;;6178409;28;20051;-49
2023/06/14 15:08:21;;;;;;;2.25;2.00;;;26.00;49.40;;;;;;6173386;28;20028;-46
2023/06/14 15:11:23;;;;;;;2.10;1.90;;;25.80;49.30;;;;;;6174763;28;20034;-46
2023/06/14 15:14:25;;;;;;;1.80;1.70;;;25.90;49.30;;;;;;6176480;28;20146;-49
2023/06/14 15:17:26;;;;;;;2.00;1.90;;;25.80;49.20;;;;;;6175398;28;20031;-48
2023/06/14 15:20:28;;;;;;;2.35;1.90;;;26.00;49.40;;;;;;6179121;28;20034;-46
2023/06/14 15:23:30;;;;;;;2.00;1.80;;;25.80;49.30;;;;;;6211151;28;20038;-45
2023/06/14 15:26:31;;;;;;;1.70;1.60;;;25.80;49.50;;;;;;6179784;28;20038;-46
2023/06/14 15:36:49;;;;;;;2.80;2.10;;;25.50;49.50;;;;;;6954338;23;20028;-49
2023/06/14 15:53:45;;;;;;;1.90;1.80;;;25.60;50.60;;;;;;6057268;29;20045;-48
2023/06/14 15:56:46;;;;;;;2.67;1.98;;;25.70;51.00;;;;;;6057714;29;20059;-48
2023/06/14 15:59:48;;;;;;;2.10;1.95;;;25.60;51.40;;;;;;6077646;29;20068;-49
2023/06/14 16:02:52;;;;;;;1.88;1.67;;;25.50;51.40;;;;;;6056666;29;20032;-51
2023/06/14 16:05:53;;;;;;;2.78;1.60;;;25.60;51.80;;;;;;6061617;29;20088;-47
2023/06/14 16:08:56;;;;;;;2.20;1.90;;;26.00;51.80;;;;;;6072375;29;20782;-50
2023/06/14 16:11:57;;;;;;;2.85;1.90;;;25.70;51.50;;;;;;6055222;29;20032;-53
2023/06/14 16:14:59;;;;;;;2.10;1.88;;;25.20;51.00;;;;;;6050420;29;20056;-49
2023/06/14 16:18:00;;;;;;;1.88;1.70;;;25.70;52.80;;;;;;6039243;29;20036;-48
2023/06/14 16:21:05;;;;;;;1.58;1.48;;;25.30;51.60;;;;;;6043868;29;20753;-49
2023/06/14 16:24:08;;;;;;;1.63;1.52;;;25.90;52.00;;;;;;6047519;29;20036;-49
2023/06/14 16:27:10;;;;;;;2.05;1.85;;;25.70;51.60;;;;;;6045723;29;20032;-51
2023/06/14 16:30:14;;;;;;;2.53;2.10;;;25.50;51.70;;;;;;6035887;29;20104;-48
2023/06/14 16:33:16;;;;;;;1.90;1.70;;;25.50;52.00;;;;;;6075785;29;20088;-49
2023/06/14 16:36:19;;;;;;;1.98;1.77;;;25.70;52.20;;;;;;6062048;29;20060;-48
2023/06/14 16:39:23;;;;;;;1.73;1.63;;;25.70;51.80;;;;;;6059431;29;20040;-48
2023/06/14 16:42:25;;;;;;;2.40;1.80;;;25.70;51.70;;;;;;6085311;29;20044;-50
2023/06/14 16:45:29;;;;;;;1.60;1.50;;;25.90;51.90;;;;;;6080007;29;20036;-51
2023/06/14 16:48:30;;;;;;;2.00;1.80;;;25.70;51.70;;;;;;6068151;29;20099;-53
2023/06/14 16:51:35;;;;;;;1.63;1.48;;;25.70;51.60;;;;;;6069014;29;20661;-53
2023/06/14 16:54:40;;;;;;;1.70;1.55;;;25.70;51.60;;;;;;6081282;29;20531;-53